sensor_id;sensor_type;location;lat;lon;timestamp;temperature;humidity
13569;DHT22;6856;51.460;7.158;2022-12-18T00:02:03;-3.60;60.90
13569;DHT22;6856;51.460;7.158;2022-12-18T00:04:37;-3.60;60.80
13569;DHT22;6856;51.460;7.158;2022-12-18T00:07:11;-3.60;60.90
13569;DHT22;6856;51.460;7.158;2022-12-18T00:09:45;-3.60;60.40
13569;DHT22;6856;51.460;7.158;2022-12-18T00:12:20;-3.70;60.60
13569;DHT22;6856;51.460;7.158;2022-12-18T00:14:55;-3.70;60.70
13569;DHT22;6856;51.460;7.158;2022-12-18T00:17:29;-3.70;60.40
13569;DHT22;6856;51.460;7.158;2022-12-18T00:20:03;-3.70;60.80
13569;DHT22;6856;51.460;7.158;2022-12-18T00:22:39;-3.70;60.90
13569;DHT22;6856;51.460;7.158;2022-12-18T00:25:13;-3.80;60.70
13569;DHT22;6856;51.460;7.158;2022-12-18T00:27:47;-3.80;60.90
13569;DHT22;6856;51.460;7.158;2022-12-18T00:30:23;-3.80;60.80
13569;DHT22;6856;51.460;7.158;2022-12-18T00:32:57;-3.80;60.90
13569;DHT22;6856;51.460;7.158;2022-12-18T00:35:32;-3.80;60.70
13569;DHT22;6856;51.460;7.158;2022-12-18T00:38:06;-3.60;61.80
13569;DHT22;6856;51.460;7.158;2022-12-18T00:40:41;-3.80;60.90
13569;DHT22;6856;51.460;7.158;2022-12-18T00:43:19;-3.80;61.00
13569;DHT22;6856;51.460;7.158;2022-12-18T00:45:53;-3.80;60.90
13569;DHT22;6856;51.460;7.158;2022-12-18T00:48:27;-3.80;60.80
13569;DHT22;6856;51.460;7.158;2022-12-18T00:51:01;-3.80;60.80
13569;DHT22;6856;51.460;7.158;2022-12-18T00:53:34;-3.90;60.80
13569;DHT22;6856;51.460;7.158;2022-12-18T00:56:09;-3.90;60.70
13569;DHT22;6856;51.460;7.158;2022-12-18T00:58:42;-3.90;60.70
13569;DHT22;6856;51.460;7.158;2022-12-18T01:01:18;-3.90;60.70
13569;DHT22;6856;51.460;7.158;2022-12-18T01:03:52;-3.90;60.90
13569;DHT22;6856;51.460;7.158;2022-12-18T01:06:26;-3.90;60.90
13569;DHT22;6856;51.460;7.158;2022-12-18T01:09:00;-4.00;60.60
13569;DHT22;6856;51.460;7.158;2022-12-18T01:11:34;-4.00;60.80
13569;DHT22;6856;51.460;7.158;2022-12-18T01:14:08;-4.00;60.70
13569;DHT22;6856;51.460;7.158;2022-12-18T01:16:44;-4.00;60.90
13569;DHT22;6856;51.460;7.158;2022-12-18T01:19:18;-4.00;60.90
13569;DHT22;6856;51.460;7.158;2022-12-18T01:21:52;-4.10;60.80
13569;DHT22;6856;51.460;7.158;2022-12-18T01:24:27;-4.10;60.80
13569;DHT22;6856;51.460;7.158;2022-12-18T01:27:01;-4.10;60.90
13569;DHT22;6856;51.460;7.158;2022-12-18T01:29:35;-4.10;60.80
13569;DHT22;6856;51.460;7.158;2022-12-18T01:32:10;-4.10;60.60
13569;DHT22;6856;51.460;7.158;2022-12-18T01:34:44;-4.10;60.80
13569;DHT22;6856;51.460;7.158;2022-12-18T01:37:19;-3.90;61.00
13569;DHT22;6856;51.460;7.158;2022-12-18T01:39:53;-4.10;61.50
13569;DHT22;6856;51.460;7.158;2022-12-18T01:42:27;-4.00;60.80
13569;DHT22;6856;51.460;7.158;2022-12-18T01:45:08;-4.20;60.80
13569;DHT22;6856;51.460;7.158;2022-12-18T01:47:59;-4.20;60.90
13569;DHT22;6856;51.460;7.158;2022-12-18T01:50:38;-4.20;60.90
13569;DHT22;6856;51.460;7.158;2022-12-18T01:53:16;-4.20;60.80
13569;DHT22;6856;51.460;7.158;2022-12-18T01:55:53;-4.20;60.80
13569;DHT22;6856;51.460;7.158;2022-12-18T01:58:38;-4.20;60.80
13569;DHT22;6856;51.460;7.158;2022-12-18T02:01:18;-4.30;60.90
13569;DHT22;6856;51.460;7.158;2022-12-18T02:03:55;-4.30;60.80
13569;DHT22;6856;51.460;7.158;2022-12-18T02:06:34;-4.30;60.80
13569;DHT22;6856;51.460;7.158;2022-12-18T02:09:16;-4.30;60.80
13569;DHT22;6856;51.460;7.158;2022-12-18T02:11:58;-4.30;61.00
13569;DHT22;6856;51.460;7.158;2022-12-18T02:14:38;-4.30;61.20
13569;DHT22;6856;51.460;7.158;2022-12-18T02:17:20;-4.30;61.60
13569;DHT22;6856;51.460;7.158;2022-12-18T02:20:08;-4.20;62.10
13569;DHT22;6856;51.460;7.158;2022-12-18T02:22:59;-4.10;62.80
13569;DHT22;6856;51.460;7.158;2022-12-18T02:25:59;-4.00;63.30
13569;DHT22;6856;51.460;7.158;2022-12-18T02:28:43;-3.80;64.20
13569;DHT22;6856;51.460;7.158;2022-12-18T02:31:25;-3.70;64.30
13569;DHT22;6856;51.460;7.158;2022-12-18T02:34:03;-3.50;64.80
13569;DHT22;6856;51.460;7.158;2022-12-18T02:36:40;-3.40;64.90
13569;DHT22;6856;51.460;7.158;2022-12-18T02:39:16;-3.10;65.30
13569;DHT22;6856;51.460;7.158;2022-12-18T02:41:55;-3.10;65.60
13569;DHT22;6856;51.460;7.158;2022-12-18T02:44:30;-2.90;65.70
13569;DHT22;6856;51.460;7.158;2022-12-18T02:47:04;-2.80;65.80
13569;DHT22;6856;51.460;7.158;2022-12-18T02:49:46;-2.60;65.70
13569;DHT22;6856;51.460;7.158;2022-12-18T02:52:32;-2.50;66.10
13569;DHT22;6856;51.460;7.158;2022-12-18T02:55:22;-2.40;66.30
13569;DHT22;6856;51.460;7.158;2022-12-18T02:58:13;-2.20;66.40
13569;DHT22;6856;51.460;7.158;2022-12-18T03:00:56;-2.10;66.30
13569;DHT22;6856;51.460;7.158;2022-12-18T03:03:38;-2.00;66.40
13569;DHT22;6856;51.460;7.158;2022-12-18T03:06:22;-1.90;66.20
13569;DHT22;6856;51.460;7.158;2022-12-18T03:09:01;-2.00;66.00
13569;DHT22;6856;51.460;7.158;2022-12-18T03:11:41;-1.70;65.80
13569;DHT22;6856;51.460;7.158;2022-12-18T03:14:40;-1.60;65.80
13569;DHT22;6856;51.460;7.158;2022-12-18T03:17:18;-1.50;65.50
13569;DHT22;6856;51.460;7.158;2022-12-18T03:19:56;-1.50;65.60
13569;DHT22;6856;51.460;7.158;2022-12-18T03:22:35;-1.40;65.60
13569;DHT22;6856;51.460;7.158;2022-12-18T03:25:13;-1.30;65.50
13569;DHT22;6856;51.460;7.158;2022-12-18T03:27:52;-1.30;65.20
13569;DHT22;6856;51.460;7.158;2022-12-18T03:30:36;-1.20;65.20
13569;DHT22;6856;51.460;7.158;2022-12-18T03:33:17;-1.10;64.80
13569;DHT22;6856;51.460;7.158;2022-12-18T03:35:53;-1.10;64.70
13569;DHT22;6856;51.460;7.158;2022-12-18T03:38:28;-1.10;64.60
13569;DHT22;6856;51.460;7.158;2022-12-18T03:41:09;-1.00;64.50
13569;DHT22;6856;51.460;7.158;2022-12-18T03:43:51;-1.00;64.40
13569;DHT22;6856;51.460;7.158;2022-12-18T03:46:33;-1.00;64.20
13569;DHT22;6856;51.460;7.158;2022-12-18T03:49:25;-0.90;64.20
13569;DHT22;6856;51.460;7.158;2022-12-18T03:52:06;-0.90;63.90
13569;DHT22;6856;51.460;7.158;2022-12-18T03:54:45;-0.90;64.00
13569;DHT22;6856;51.460;7.158;2022-12-18T03:57:22;-0.90;64.00
13569;DHT22;6856;51.460;7.158;2022-12-18T04:00:04;-0.80;63.20
13569;DHT22;6856;51.460;7.158;2022-12-18T04:02:47;-0.80;63.70
13569;DHT22;6856;51.460;7.158;2022-12-18T04:05:27;-0.80;63.80
13569;DHT22;6856;51.460;7.158;2022-12-18T04:08:06;-0.70;63.70
13569;DHT22;6856;51.460;7.158;2022-12-18T04:10:43;-0.70;63.80
13569;DHT22;6856;51.460;7.158;2022-12-18T04:13:22;-0.70;63.40
13569;DHT22;6856;51.460;7.158;2022-12-18T04:15:56;-0.70;63.40
13569;DHT22;6856;51.460;7.158;2022-12-18T04:18:41;-0.70;63.10
13569;DHT22;6856;51.460;7.158;2022-12-18T04:21:15;-0.70;62.90
13569;DHT22;6856;51.460;7.158;2022-12-18T04:23:48;-0.70;62.60
13569;DHT22;6856;51.460;7.158;2022-12-18T04:26:23;-0.70;62.60
13569;DHT22;6856;51.460;7.158;2022-12-18T04:28:57;-0.70;62.30
13569;DHT22;6856;51.460;7.158;2022-12-18T04:31:30;-0.70;62.20
13569;DHT22;6856;51.460;7.158;2022-12-18T04:34:06;-0.70;62.30
13569;DHT22;6856;51.460;7.158;2022-12-18T04:36:39;-0.80;62.00
13569;DHT22;6856;51.460;7.158;2022-12-18T04:39:14;-0.80;62.00
13569;DHT22;6856;51.460;7.158;2022-12-18T04:41:50;-0.80;62.00
13569;DHT22;6856;51.460;7.158;2022-12-18T04:44:30;-0.90;61.80
13569;DHT22;6856;51.460;7.158;2022-12-18T04:47:04;-0.90;61.70
13569;DHT22;6856;51.460;7.158;2022-12-18T04:49:41;-1.00;61.60
13569;DHT22;6856;51.460;7.158;2022-12-18T04:52:15;-1.00;61.60
13569;DHT22;6856;51.460;7.158;2022-12-18T04:54:48;-1.10;61.40
13569;DHT22;6856;51.460;7.158;2022-12-18T04:57:22;-1.10;61.50
13569;DHT22;6856;51.460;7.158;2022-12-18T04:59:56;-1.20;61.50
13569;DHT22;6856;51.460;7.158;2022-12-18T05:02:30;-1.30;61.50
13569;DHT22;6856;51.460;7.158;2022-12-18T05:05:08;-1.30;61.50
13569;DHT22;6856;51.460;7.158;2022-12-18T05:07:43;-1.30;61.70
13569;DHT22;6856;51.460;7.158;2022-12-18T05:10:17;-1.40;61.60
13569;DHT22;6856;51.460;7.158;2022-12-18T05:12:50;-1.40;61.70
13569;DHT22;6856;51.460;7.158;2022-12-18T05:15:34;-1.40;62.10
13569;DHT22;6856;51.460;7.158;2022-12-18T05:18:08;-1.40;62.10
13569;DHT22;6856;51.460;7.158;2022-12-18T05:20:43;-1.40;62.20
13569;DHT22;6856;51.460;7.158;2022-12-18T05:23:18;-1.40;62.40
13569;DHT22;6856;51.460;7.158;2022-12-18T05:25:53;-1.40;62.40
13569;DHT22;6856;51.460;7.158;2022-12-18T05:28:29;-1.40;62.40
13569;DHT22;6856;51.460;7.158;2022-12-18T05:31:04;-1.40;62.50
13569;DHT22;6856;51.460;7.158;2022-12-18T05:33:38;-1.40;62.40
13569;DHT22;6856;51.460;7.158;2022-12-18T05:36:13;-1.30;62.60
13569;DHT22;6856;51.460;7.158;2022-12-18T05:38:47;-1.50;62.50
13569;DHT22;6856;51.460;7.158;2022-12-18T05:41:24;-1.30;62.40
13569;DHT22;6856;51.460;7.158;2022-12-18T05:43:58;-1.30;62.60
13569;DHT22;6856;51.460;7.158;2022-12-18T05:46:32;-1.20;62.80
13569;DHT22;6856;51.460;7.158;2022-12-18T05:49:06;-1.20;62.70
13569;DHT22;6856;51.460;7.158;2022-12-18T05:51:41;-1.10;62.70
13569;DHT22;6856;51.460;7.158;2022-12-18T05:54:15;-1.10;62.70
13569;DHT22;6856;51.460;7.158;2022-12-18T05:56:49;-1.00;62.80
13569;DHT22;6856;51.460;7.158;2022-12-18T05:59:23;-1.00;62.90
13569;DHT22;6856;51.460;7.158;2022-12-18T06:01:57;-0.90;62.80
13569;DHT22;6856;51.460;7.158;2022-12-18T06:04:31;-0.90;62.40
13569;DHT22;6856;51.460;7.158;2022-12-18T06:07:07;-1.10;62.30
13569;DHT22;6856;51.460;7.158;2022-12-18T06:09:47;-0.80;62.00
13569;DHT22;6856;51.460;7.158;2022-12-18T06:12:20;-0.80;61.70
13569;DHT22;6856;51.460;7.158;2022-12-18T06:14:54;-0.70;61.70
13569;DHT22;6856;51.460;7.158;2022-12-18T06:17:29;-0.70;61.50
13569;DHT22;6856;51.460;7.158;2022-12-18T06:20:04;-0.70;61.40
13569;DHT22;6856;51.460;7.158;2022-12-18T06:22:40;-0.70;61.40
13569;DHT22;6856;51.460;7.158;2022-12-18T06:25:13;-0.70;61.20
13569;DHT22;6856;51.460;7.158;2022-12-18T06:27:53;-0.70;61.10
13569;DHT22;6856;51.460;7.158;2022-12-18T06:30:34;-0.80;61.00
13569;DHT22;6856;51.460;7.158;2022-12-18T06:33:11;-0.80;60.70
13569;DHT22;6856;51.460;7.158;2022-12-18T06:35:45;-0.80;60.70
13569;DHT22;6856;51.460;7.158;2022-12-18T06:38:20;-0.90;60.30
13569;DHT22;6856;51.460;7.158;2022-12-18T06:40:53;-0.90;60.40
13569;DHT22;6856;51.460;7.158;2022-12-18T06:43:27;-1.00;60.00
13569;DHT22;6856;51.460;7.158;2022-12-18T06:46:02;-0.90;60.20
13569;DHT22;6856;51.460;7.158;2022-12-18T06:48:37;-1.10;60.10
13569;DHT22;6856;51.460;7.158;2022-12-18T06:51:11;-1.10;59.90
13569;DHT22;6856;51.460;7.158;2022-12-18T06:53:46;-1.20;59.90
13569;DHT22;6856;51.460;7.158;2022-12-18T06:56:20;-1.20;59.90
13569;DHT22;6856;51.460;7.158;2022-12-18T06:58:54;-1.30;59.90
13569;DHT22;6856;51.460;7.158;2022-12-18T07:01:28;-1.30;59.90
13569;DHT22;6856;51.460;7.158;2022-12-18T07:04:02;-1.30;60.00
13569;DHT22;6856;51.460;7.158;2022-12-18T07:06:36;-1.40;59.90
13569;DHT22;6856;51.460;7.158;2022-12-18T07:09:11;-1.40;59.90
13569;DHT22;6856;51.460;7.158;2022-12-18T07:11:45;-1.50;59.70
13569;DHT22;6856;51.460;7.158;2022-12-18T07:14:21;-1.50;59.90
13569;DHT22;6856;51.460;7.158;2022-12-18T07:16:55;-1.50;60.80
13569;DHT22;6856;51.460;7.158;2022-12-18T07:19:29;-1.50;60.20
13569;DHT22;6856;51.460;7.158;2022-12-18T07:22:03;-1.50;60.50
13569;DHT22;6856;51.460;7.158;2022-12-18T07:24:38;-1.50;60.60
13569;DHT22;6856;51.460;7.158;2022-12-18T07:27:12;-1.50;60.70
13569;DHT22;6856;51.460;7.158;2022-12-18T07:29:46;-1.50;60.80
13569;DHT22;6856;51.460;7.158;2022-12-18T07:32:19;-1.40;60.70
13569;DHT22;6856;51.460;7.158;2022-12-18T07:34:53;-1.30;60.90
13569;DHT22;6856;51.460;7.158;2022-12-18T07:37:27;-1.30;60.70
13569;DHT22;6856;51.460;7.158;2022-12-18T07:40:03;-1.20;60.90
13569;DHT22;6856;51.460;7.158;2022-12-18T07:42:38;-1.20;61.00
13569;DHT22;6856;51.460;7.158;2022-12-18T07:45:12;-1.10;60.70
13569;DHT22;6856;51.460;7.158;2022-12-18T07:47:46;-1.00;60.60
13569;DHT22;6856;51.460;7.158;2022-12-18T07:50:20;-1.00;60.50
13569;DHT22;6856;51.460;7.158;2022-12-18T07:52:53;-0.90;60.70
13569;DHT22;6856;51.460;7.158;2022-12-18T07:55:29;-0.90;60.50
13569;DHT22;6856;51.460;7.158;2022-12-18T07:58:23;-0.80;60.30
13569;DHT22;6856;51.460;7.158;2022-12-18T08:01:02;-0.70;60.00
13569;DHT22;6856;51.460;7.158;2022-12-18T08:03:38;-0.70;60.30
13569;DHT22;6856;51.460;7.158;2022-12-18T08:06:14;-0.70;60.10
13569;DHT22;6856;51.460;7.158;2022-12-18T08:08:48;-0.70;59.90
13569;DHT22;6856;51.460;7.158;2022-12-18T08:11:25;-0.60;60.00
13569;DHT22;6856;51.460;7.158;2022-12-18T08:14:01;-0.60;59.90
13569;DHT22;6856;51.460;7.158;2022-12-18T08:16:35;-0.60;59.80
13569;DHT22;6856;51.460;7.158;2022-12-18T08:19:12;-0.50;59.80
13569;DHT22;6856;51.460;7.158;2022-12-18T08:21:46;-0.50;59.50
13569;DHT22;6856;51.460;7.158;2022-12-18T08:24:20;-0.50;59.70
13569;DHT22;6856;51.460;7.158;2022-12-18T08:26:57;-0.50;59.70
13569;DHT22;6856;51.460;7.158;2022-12-18T08:29:51;-0.50;59.70
13569;DHT22;6856;51.460;7.158;2022-12-18T08:32:25;-0.40;59.80
13569;DHT22;6856;51.460;7.158;2022-12-18T08:35:00;-0.40;59.80
13569;DHT22;6856;51.460;7.158;2022-12-18T08:37:34;-0.40;59.80
13569;DHT22;6856;51.460;7.158;2022-12-18T08:40:09;-0.40;59.80
13569;DHT22;6856;51.460;7.158;2022-12-18T08:42:47;-0.40;60.10
13569;DHT22;6856;51.460;7.158;2022-12-18T08:45:39;-0.30;60.20
13569;DHT22;6856;51.460;7.158;2022-12-18T08:48:13;-0.30;60.00
13569;DHT22;6856;51.460;7.158;2022-12-18T08:50:56;-0.30;60.20
13569;DHT22;6856;51.460;7.158;2022-12-18T08:53:34;-0.20;60.30
13569;DHT22;6856;51.460;7.158;2022-12-18T08:56:12;-0.20;60.00
13569;DHT22;6856;51.460;7.158;2022-12-18T08:58:53;-0.10;60.40
13569;DHT22;6856;51.460;7.158;2022-12-18T09:01:28;-0.10;60.60
13569;DHT22;6856;51.460;7.158;2022-12-18T09:04:03;-0.10;60.60
13569;DHT22;6856;51.460;7.158;2022-12-18T09:06:39;0.00;60.50
13569;DHT22;6856;51.460;7.158;2022-12-18T09:09:25;0.00;60.70
13569;DHT22;6856;51.460;7.158;2022-12-18T09:11:58;0.10;60.50
13569;DHT22;6856;51.460;7.158;2022-12-18T09:14:34;0.20;60.30
13569;DHT22;6856;51.460;7.158;2022-12-18T09:17:08;0.30;60.20
13569;DHT22;6856;51.460;7.158;2022-12-18T09:19:42;0.50;60.20
13569;DHT22;6856;51.460;7.158;2022-12-18T09:22:15;0.60;59.90
13569;DHT22;6856;51.460;7.158;2022-12-18T09:24:52;0.70;59.60
13569;DHT22;6856;51.460;7.158;2022-12-18T09:27:54;0.90;59.50
13569;DHT22;6856;51.460;7.158;2022-12-18T09:30:29;0.80;59.10
13569;DHT22;6856;51.460;7.158;2022-12-18T09:33:06;1.20;58.70
13569;DHT22;6856;51.460;7.158;2022-12-18T09:35:42;1.30;58.70
13569;DHT22;6856;51.460;7.158;2022-12-18T09:38:18;1.50;58.80
13569;DHT22;6856;51.460;7.158;2022-12-18T09:40:59;1.60;58.60
13569;DHT22;6856;51.460;7.158;2022-12-18T09:43:46;1.80;58.40
13569;DHT22;6856;51.460;7.158;2022-12-18T09:46:27;1.90;58.20
13569;DHT22;6856;51.460;7.158;2022-12-18T09:49:07;2.10;58.00
13569;DHT22;6856;51.460;7.158;2022-12-18T09:51:50;2.10;57.80
13569;DHT22;6856;51.460;7.158;2022-12-18T09:54:33;2.30;57.50
13569;DHT22;6856;51.460;7.158;2022-12-18T09:57:13;2.40;57.30
13569;DHT22;6856;51.460;7.158;2022-12-18T09:59:51;2.50;57.10
13569;DHT22;6856;51.460;7.158;2022-12-18T10:02:31;2.60;56.70
13569;DHT22;6856;51.460;7.158;2022-12-18T10:05:13;2.70;56.60
13569;DHT22;6856;51.460;7.158;2022-12-18T10:07:55;2.80;56.50
13569;DHT22;6856;51.460;7.158;2022-12-18T10:10:39;2.90;56.40
13569;DHT22;6856;51.460;7.158;2022-12-18T10:13:24;3.00;56.40
13569;DHT22;6856;51.460;7.158;2022-12-18T10:16:12;3.10;56.30
13569;DHT22;6856;51.460;7.158;2022-12-18T10:19:08;3.10;56.00
13569;DHT22;6856;51.460;7.158;2022-12-18T10:22:01;3.20;55.80
13569;DHT22;6856;51.460;7.158;2022-12-18T10:24:51;3.30;55.80
13569;DHT22;6856;51.460;7.158;2022-12-18T10:27:31;3.40;55.80
13569;DHT22;6856;51.460;7.158;2022-12-18T10:30:12;3.50;55.50
13569;DHT22;6856;51.460;7.158;2022-12-18T10:32:48;3.50;55.90
13569;DHT22;6856;51.460;7.158;2022-12-18T10:35:30;3.60;55.50
13569;DHT22;6856;51.460;7.158;2022-12-18T10:38:21;3.60;55.20
13569;DHT22;6856;51.460;7.158;2022-12-18T10:40:58;3.70;55.10
13569;DHT22;6856;51.460;7.158;2022-12-18T10:43:39;3.80;55.30
13569;DHT22;6856;51.460;7.158;2022-12-18T10:46:16;3.80;55.20
13569;DHT22;6856;51.460;7.158;2022-12-18T10:48:57;3.90;54.90
13569;DHT22;6856;51.460;7.158;2022-12-18T10:51:34;3.90;54.70
13569;DHT22;6856;51.460;7.158;2022-12-18T10:54:15;4.00;54.60
13569;DHT22;6856;51.460;7.158;2022-12-18T10:56:51;4.10;54.70
13569;DHT22;6856;51.460;7.158;2022-12-18T10:59:52;4.10;54.60
13569;DHT22;6856;51.460;7.158;2022-12-18T11:02:38;4.20;54.70
13569;DHT22;6856;51.460;7.158;2022-12-18T11:05:32;4.20;54.40
13569;DHT22;6856;51.460;7.158;2022-12-18T11:08:20;4.30;54.40
13569;DHT22;6856;51.460;7.158;2022-12-18T11:10:56;4.30;54.40
13569;DHT22;6856;51.460;7.158;2022-12-18T11:13:31;4.40;54.50
13569;DHT22;6856;51.460;7.158;2022-12-18T11:16:07;4.40;54.40
13569;DHT22;6856;51.460;7.158;2022-12-18T11:18:41;4.40;54.40
13569;DHT22;6856;51.460;7.158;2022-12-18T11:21:16;4.40;54.30
13569;DHT22;6856;51.460;7.158;2022-12-18T11:23:52;4.50;54.20
13569;DHT22;6856;51.460;7.158;2022-12-18T11:26:34;4.50;53.90
13569;DHT22;6856;51.460;7.158;2022-12-18T11:29:10;4.50;53.80
13569;DHT22;6856;51.460;7.158;2022-12-18T11:31:51;4.50;53.90
13569;DHT22;6856;51.460;7.158;2022-12-18T11:34:27;4.60;53.80
13569;DHT22;6856;51.460;7.158;2022-12-18T11:37:03;4.70;53.90
13569;DHT22;6856;51.460;7.158;2022-12-18T11:39:44;4.70;53.90
13569;DHT22;6856;51.460;7.158;2022-12-18T11:42:27;4.70;53.80
13569;DHT22;6856;51.460;7.158;2022-12-18T11:45:28;4.70;53.80
13569;DHT22;6856;51.460;7.158;2022-12-18T11:48:14;4.80;53.80
13569;DHT22;6856;51.460;7.158;2022-12-18T11:50:53;4.80;53.80
13569;DHT22;6856;51.460;7.158;2022-12-18T11:53:30;4.80;53.80
13569;DHT22;6856;51.460;7.158;2022-12-18T11:56:21;4.80;53.60
13569;DHT22;6856;51.460;7.158;2022-12-18T11:59:12;4.90;53.40
13569;DHT22;6856;51.460;7.158;2022-12-18T12:01:58;4.90;53.60
13569;DHT22;6856;51.460;7.158;2022-12-18T12:04:59;4.90;53.50
13569;DHT22;6856;51.460;7.158;2022-12-18T12:07:45;4.90;53.40
13569;DHT22;6856;51.460;7.158;2022-12-18T12:10:37;5.00;53.40
13569;DHT22;6856;51.460;7.158;2022-12-18T12:13:31;5.00;53.10
13569;DHT22;6856;51.460;7.158;2022-12-18T12:16:17;5.00;53.00
13569;DHT22;6856;51.460;7.158;2022-12-18T12:19:10;5.00;53.00
13569;DHT22;6856;51.460;7.158;2022-12-18T12:21:59;5.10;52.70
13569;DHT22;6856;51.460;7.158;2022-12-18T12:24:48;5.00;52.70
13569;DHT22;6856;51.460;7.158;2022-12-18T12:27:38;5.20;52.90
13569;DHT22;6856;51.460;7.158;2022-12-18T12:30:22;5.20;53.00
13569;DHT22;6856;51.460;7.158;2022-12-18T12:33:15;5.20;52.70
13569;DHT22;6856;51.460;7.158;2022-12-18T12:36:04;5.20;52.60
13569;DHT22;6856;51.460;7.158;2022-12-18T12:38:49;5.30;52.40
13569;DHT22;6856;51.460;7.158;2022-12-18T12:41:31;5.30;52.40
13569;DHT22;6856;51.460;7.158;2022-12-18T12:44:27;5.30;52.30
13569;DHT22;6856;51.460;7.158;2022-12-18T12:47:13;5.30;52.20
13569;DHT22;6856;51.460;7.158;2022-12-18T12:49:50;5.30;51.70
13569;DHT22;6856;51.460;7.158;2022-12-18T12:52:31;5.40;51.80
13569;DHT22;6856;51.460;7.158;2022-12-18T12:55:16;5.40;51.50
13569;DHT22;6856;51.460;7.158;2022-12-18T12:58:03;5.40;51.50
13569;DHT22;6856;51.460;7.158;2022-12-18T13:00:45;5.40;51.50
13569;DHT22;6856;51.460;7.158;2022-12-18T13:03:35;5.50;51.40
13569;DHT22;6856;51.460;7.158;2022-12-18T13:06:22;5.50;51.30
13569;DHT22;6856;51.460;7.158;2022-12-18T13:09:03;5.50;51.50
13569;DHT22;6856;51.460;7.158;2022-12-18T13:11:39;5.50;51.30
13569;DHT22;6856;51.460;7.158;2022-12-18T13:14:35;5.50;51.10
13569;DHT22;6856;51.460;7.158;2022-12-18T13:17:30;5.60;51.10
13569;DHT22;6856;51.460;7.158;2022-12-18T13:20:18;5.60;50.90
13569;DHT22;6856;51.460;7.158;2022-12-18T13:22:52;5.50;50.80
13569;DHT22;6856;51.460;7.158;2022-12-18T13:25:35;5.60;51.00
13569;DHT22;6856;51.460;7.158;2022-12-18T13:28:12;5.60;50.80
13569;DHT22;6856;51.460;7.158;2022-12-18T13:30:55;5.60;51.00
13569;DHT22;6856;51.460;7.158;2022-12-18T13:33:50;5.50;51.40
13569;DHT22;6856;51.460;7.158;2022-12-18T13:36:46;5.50;50.80
13569;DHT22;6856;51.460;7.158;2022-12-18T13:39:24;5.50;51.20
13569;DHT22;6856;51.460;7.158;2022-12-18T13:42:31;5.50;51.20
13569;DHT22;6856;51.460;7.158;2022-12-18T13:45:45;5.50;51.20
13569;DHT22;6856;51.460;7.158;2022-12-18T13:48:24;5.50;51.50
13569;DHT22;6856;51.460;7.158;2022-12-18T13:51:03;5.50;51.50
13569;DHT22;6856;51.460;7.158;2022-12-18T13:53:44;5.40;51.40
13569;DHT22;6856;51.460;7.158;2022-12-18T13:56:23;5.40;51.20
13569;DHT22;6856;51.460;7.158;2022-12-18T14:01:59;5.40;51.70
13569;DHT22;6856;51.460;7.158;2022-12-18T14:04:35;5.40;51.50
13569;DHT22;6856;51.460;7.158;2022-12-18T14:07:14;5.30;51.20
13569;DHT22;6856;51.460;7.158;2022-12-18T14:09:54;5.30;51.50
13569;DHT22;6856;51.460;7.158;2022-12-18T14:12:51;5.30;51.50
13569;DHT22;6856;51.460;7.158;2022-12-18T14:15:36;5.30;51.60
13569;DHT22;6856;51.460;7.158;2022-12-18T14:18:20;5.30;51.60
13569;DHT22;6856;51.460;7.158;2022-12-18T14:20:58;5.20;51.40
13569;DHT22;6856;51.460;7.158;2022-12-18T14:23:36;5.20;51.40
13569;DHT22;6856;51.460;7.158;2022-12-18T14:26:23;5.20;51.30
13569;DHT22;6856;51.460;7.158;2022-12-18T14:29:17;5.20;51.10
13569;DHT22;6856;51.460;7.158;2022-12-18T14:32:09;5.20;51.40
13569;DHT22;6856;51.460;7.158;2022-12-18T14:34:50;5.10;51.40
13569;DHT22;6856;51.460;7.158;2022-12-18T14:37:26;5.10;51.50
13569;DHT22;6856;51.460;7.158;2022-12-18T14:40:13;5.10;51.40
13569;DHT22;6856;51.460;7.158;2022-12-18T14:42:49;5.00;51.30
13569;DHT22;6856;51.460;7.158;2022-12-18T14:45:43;5.00;51.30
13569;DHT22;6856;51.460;7.158;2022-12-18T14:48:20;5.00;51.60
13569;DHT22;6856;51.460;7.158;2022-12-18T14:51:00;5.00;51.50
13569;DHT22;6856;51.460;7.158;2022-12-18T14:53:39;5.00;51.60
13569;DHT22;6856;51.460;7.158;2022-12-18T14:56:25;5.00;51.50
13569;DHT22;6856;51.460;7.158;2022-12-18T14:59:03;4.90;51.50
13569;DHT22;6856;51.460;7.158;2022-12-18T15:01:45;4.90;51.30
13569;DHT22;6856;51.460;7.158;2022-12-18T15:04:26;4.90;51.40
13569;DHT22;6856;51.460;7.158;2022-12-18T15:07:11;5.10;51.50
13569;DHT22;6856;51.460;7.158;2022-12-18T15:10:02;4.90;51.40
13569;DHT22;6856;51.460;7.158;2022-12-18T15:12:44;4.90;51.40
13569;DHT22;6856;51.460;7.158;2022-12-18T15:15:45;4.90;51.60
13569;DHT22;6856;51.460;7.158;2022-12-18T15:18:32;4.80;51.30
13569;DHT22;6856;51.460;7.158;2022-12-18T15:21:10;4.80;51.40
13569;DHT22;6856;51.460;7.158;2022-12-18T15:23:51;4.80;51.40
13569;DHT22;6856;51.460;7.158;2022-12-18T15:26:36;4.80;51.20
13569;DHT22;6856;51.460;7.158;2022-12-18T15:29:19;4.80;51.20
13569;DHT22;6856;51.460;7.158;2022-12-18T15:32:19;4.80;51.20
13569;DHT22;6856;51.460;7.158;2022-12-18T15:35:03;4.80;50.80
13569;DHT22;6856;51.460;7.158;2022-12-18T15:37:45;4.80;51.20
13569;DHT22;6856;51.460;7.158;2022-12-18T15:40:21;4.70;51.00
13569;DHT22;6856;51.460;7.158;2022-12-18T15:42:56;4.70;51.70
13569;DHT22;6856;51.460;7.158;2022-12-18T15:45:47;4.80;51.10
13569;DHT22;6856;51.460;7.158;2022-12-18T15:48:23;4.70;51.20
13569;DHT22;6856;51.460;7.158;2022-12-18T15:50:57;4.70;51.30
13569;DHT22;6856;51.460;7.158;2022-12-18T15:53:33;4.70;51.50
13569;DHT22;6856;51.460;7.158;2022-12-18T15:56:09;4.70;51.50
13569;DHT22;6856;51.460;7.158;2022-12-18T15:59:04;4.60;51.40
13569;DHT22;6856;51.460;7.158;2022-12-18T16:01:43;4.60;51.50
13569;DHT22;6856;51.460;7.158;2022-12-18T16:04:22;4.60;51.50
13569;DHT22;6856;51.460;7.158;2022-12-18T16:06:57;4.60;51.50
13569;DHT22;6856;51.460;7.158;2022-12-18T16:09:48;4.60;51.40
13569;DHT22;6856;51.460;7.158;2022-12-18T16:12:24;4.60;51.50
13569;DHT22;6856;51.460;7.158;2022-12-18T16:14:58;4.60;51.60
13569;DHT22;6856;51.460;7.158;2022-12-18T16:17:31;4.50;51.50
13569;DHT22;6856;51.460;7.158;2022-12-18T16:20:11;4.20;51.70
13569;DHT22;6856;51.460;7.158;2022-12-18T16:22:47;4.50;51.90
13569;DHT22;6856;51.460;7.158;2022-12-18T16:25:23;4.50;51.90
13569;DHT22;6856;51.460;7.158;2022-12-18T16:27:59;4.50;52.00
13569;DHT22;6856;51.460;7.158;2022-12-18T16:30:35;4.50;51.90
13569;DHT22;6856;51.460;7.158;2022-12-18T16:33:10;4.50;51.90
13569;DHT22;6856;51.460;7.158;2022-12-18T16:35:51;4.50;51.90
13569;DHT22;6856;51.460;7.158;2022-12-18T16:38:25;4.50;52.30
13569;DHT22;6856;51.460;7.158;2022-12-18T16:40:59;4.50;52.20
13569;DHT22;6856;51.460;7.158;2022-12-18T16:43:51;4.50;52.30
13569;DHT22;6856;51.460;7.158;2022-12-18T16:46:26;4.50;52.20
13569;DHT22;6856;51.460;7.158;2022-12-18T16:49:00;4.50;52.40
13569;DHT22;6856;51.460;7.158;2022-12-18T16:51:35;4.40;52.50
13569;DHT22;6856;51.460;7.158;2022-12-18T16:54:09;4.40;52.60
13569;DHT22;6856;51.460;7.158;2022-12-18T16:56:50;4.40;52.60
13569;DHT22;6856;51.460;7.158;2022-12-18T16:59:24;4.40;52.90
13569;DHT22;6856;51.460;7.158;2022-12-18T17:02:12;4.40;52.90
13569;DHT22;6856;51.460;7.158;2022-12-18T17:04:52;4.40;53.00
13569;DHT22;6856;51.460;7.158;2022-12-18T17:07:28;4.40;53.20
13569;DHT22;6856;51.460;7.158;2022-12-18T17:10:06;4.40;53.30
13569;DHT22;6856;51.460;7.158;2022-12-18T17:12:41;4.40;53.40
13569;DHT22;6856;51.460;7.158;2022-12-18T17:15:15;4.40;53.40